sensor_id;sensor_type;location;lat;lon;timestamp;P1;durP1;ratioP1;P2;durP2;ratioP2
75926;SDS011;64605;48.296;16.416;2023-05-07T00:01:01;8.50;;;5.78;;
75926;SDS011;64605;48.296;16.416;2023-05-07T00:03:27;7.70;;;5.20;;
75926;SDS011;64605;48.296;16.416;2023-05-07T00:05:53;5.82;;;5.28;;
75926;SDS011;64605;48.296;16.416;2023-05-07T00:08:19;7.93;;;6.18;;
75926;SDS011;64605;48.296;16.416;2023-05-07T00:10:45;9.35;;;5.35;;
75926;SDS011;64605;48.296;16.416;2023-05-07T00:13:11;6.57;;;5.88;;
75926;SDS011;64605;48.296;16.416;2023-05-07T00:15:37;7.93;;;5.93;;
75926;SDS011;64605;48.296;16.416;2023-05-07T00:18:03;8.18;;;5.57;;
75926;SDS011;64605;48.296;16.416;2023-05-07T00:20:28;7.63;;;6.35;;
75926;SDS011;64605;48.296;16.416;2023-05-07T00:22:54;10.75;;;5.60;;
75926;SDS011;64605;48.296;16.416;2023-05-07T00:25:20;6.65;;;4.90;;
75926;SDS011;64605;48.296;16.416;2023-05-07T00:27:46;6.80;;;5.57;;
75926;SDS011;64605;48.296;16.416;2023-05-07T00:30:11;5.50;;;5.00;;
75926;SDS011;64605;48.296;16.416;2023-05-07T00:32:37;7.70;;;5.28;;
75926;SDS011;64605;48.296;16.416;2023-05-07T00:35:04;6.35;;;5.55;;
75926;SDS011;64605;48.296;16.416;2023-05-07T00:37:30;6.72;;;5.75;;
75926;SDS011;64605;48.296;16.416;2023-05-07T00:39:56;7.03;;;6.32;;
75926;SDS011;64605;48.296;16.416;2023-05-07T00:42:21;7.88;;;6.80;;
75926;SDS011;64605;48.296;16.416;2023-05-07T00:44:47;6.63;;;5.90;;
75926;SDS011;64605;48.296;16.416;2023-05-07T00:47:13;8.48;;;7.32;;
75926;SDS011;64605;48.296;16.416;2023-05-07T00:49:42;8.88;;;6.57;;
75926;SDS011;64605;48.296;16.416;2023-05-07T00:52:13;7.55;;;6.22;;
75926;SDS011;64605;48.296;16.416;2023-05-07T00:54:41;9.13;;;6.70;;
75926;SDS011;64605;48.296;16.416;2023-05-07T00:57:07;6.15;;;5.55;;
75926;SDS011;64605;48.296;16.416;2023-05-07T00:59:34;12.82;;;7.30;;
75926;SDS011;64605;48.296;16.416;2023-05-07T01:02:00;7.20;;;6.00;;
75926;SDS011;64605;48.296;16.416;2023-05-07T01:04:26;8.50;;;6.43;;
75926;SDS011;64605;48.296;16.416;2023-05-07T01:06:52;9.27;;;6.60;;
75926;SDS011;64605;48.296;16.416;2023-05-07T01:09:21;9.48;;;6.18;;
75926;SDS011;64605;48.296;16.416;2023-05-07T01:11:48;6.80;;;6.05;;
75926;SDS011;64605;48.296;16.416;2023-05-07T01:14:15;6.18;;;5.57;;
75926;SDS011;64605;48.296;16.416;2023-05-07T01:16:42;5.70;;;5.20;;
75926;SDS011;64605;48.296;16.416;2023-05-07T01:19:08;8.00;;;5.93;;
75926;SDS011;64605;48.296;16.416;2023-05-07T01:21:35;11.88;;;6.70;;
75926;SDS011;64605;48.296;16.416;2023-05-07T01:24:02;7.18;;;6.45;;
75926;SDS011;64605;48.296;16.416;2023-05-07T01:26:29;8.82;;;6.50;;
75926;SDS011;64605;48.296;16.416;2023-05-07T01:28:55;6.72;;;5.65;;
75926;SDS011;64605;48.296;16.416;2023-05-07T01:31:21;7.32;;;6.43;;
75926;SDS011;64605;48.296;16.416;2023-05-07T01:33:48;7.07;;;6.30;;
75926;SDS011;64605;48.296;16.416;2023-05-07T01:36:14;8.93;;;5.75;;
75926;SDS011;64605;48.296;16.416;2023-05-07T01:38:42;7.90;;;5.90;;
75926;SDS011;64605;48.296;16.416;2023-05-07T01:41:08;8.48;;;6.63;;
75926;SDS011;64605;48.296;16.416;2023-05-07T01:43:34;7.80;;;6.25;;
75926;SDS011;64605;48.296;16.416;2023-05-07T01:46:00;7.22;;;5.63;;
75926;SDS011;64605;48.296;16.416;2023-05-07T01:48:27;6.35;;;5.70;;
75926;SDS011;64605;48.296;16.416;2023-05-07T01:50:53;7.72;;;6.15;;
75926;SDS011;64605;48.296;16.416;2023-05-07T01:53:20;10.48;;;6.28;;
75926;SDS011;64605;48.296;16.416;2023-05-07T01:55:46;7.13;;;5.65;;
75926;SDS011;64605;48.296;16.416;2023-05-07T01:58:11;7.40;;;5.70;;
75926;SDS011;64605;48.296;16.416;2023-05-07T02:00:37;10.85;;;6.95;;
75926;SDS011;64605;48.296;16.416;2023-05-07T02:03:03;6.57;;;5.85;;
75926;SDS011;64605;48.296;16.416;2023-05-07T02:05:28;6.70;;;6.10;;
75926;SDS011;64605;48.296;16.416;2023-05-07T02:07:54;10.38;;;7.30;;
75926;SDS011;64605;48.296;16.416;2023-05-07T02:10:19;8.57;;;6.80;;
75926;SDS011;64605;48.296;16.416;2023-05-07T02:12:45;8.18;;;6.35;;
75926;SDS011;64605;48.296;16.416;2023-05-07T02:15:11;10.25;;;7.03;;
75926;SDS011;64605;48.296;16.416;2023-05-07T02:17:39;7.93;;;7.00;;
75926;SDS011;64605;48.296;16.416;2023-05-07T02:20:23;12.05;;;7.60;;
75926;SDS011;64605;48.296;16.416;2023-05-07T02:22:49;9.25;;;7.43;;
75926;SDS011;64605;48.296;16.416;2023-05-07T02:25:15;7.97;;;7.18;;
75926;SDS011;64605;48.296;16.416;2023-05-07T02:27:40;9.38;;;7.50;;
75926;SDS011;64605;48.296;16.416;2023-05-07T02:30:06;9.73;;;6.85;;
75926;SDS011;64605;48.296;16.416;2023-05-07T02:32:32;7.97;;;6.82;;
75926;SDS011;64605;48.296;16.416;2023-05-07T02:34:58;8.95;;;7.13;;
75926;SDS011;64605;48.296;16.416;2023-05-07T02:37:23;11.32;;;8.32;;
75926;SDS011;64605;48.296;16.416;2023-05-07T02:39:49;10.48;;;8.82;;
75926;SDS011;64605;48.296;16.416;2023-05-07T02:42:14;14.35;;;11.38;;
75926;SDS011;64605;48.296;16.416;2023-05-07T02:44:40;16.20;;;12.57;;
75926;SDS011;64605;48.296;16.416;2023-05-07T02:47:06;14.35;;;12.88;;
75926;SDS011;64605;48.296;16.416;2023-05-07T02:49:33;16.20;;;13.52;;
75926;SDS011;64605;48.296;16.416;2023-05-07T02:51:59;18.05;;;13.50;;
75926;SDS011;64605;48.296;16.416;2023-05-07T02:54:24;17.85;;;13.52;;
75926;SDS011;64605;48.296;16.416;2023-05-07T02:56:50;18.15;;;13.68;;
75926;SDS011;64605;48.296;16.416;2023-05-07T02:59:16;17.80;;;13.68;;
75926;SDS011;64605;48.296;16.416;2023-05-07T03:01:41;17.48;;;14.85;;
75926;SDS011;64605;48.296;16.416;2023-05-07T03:04:09;16.25;;;13.35;;
75926;SDS011;64605;48.296;16.416;2023-05-07T03:06:35;16.92;;;14.88;;
75926;SDS011;64605;48.296;16.416;2023-05-07T03:09:01;18.95;;;15.02;;
75926;SDS011;64605;48.296;16.416;2023-05-07T03:11:27;17.38;;;13.55;;
75926;SDS011;64605;48.296;16.416;2023-05-07T03:13:53;17.08;;;14.10;;
75926;SDS011;64605;48.296;16.416;2023-05-07T03:16:18;15.98;;;14.02;;
75926;SDS011;64605;48.296;16.416;2023-05-07T03:18:44;15.30;;;13.35;;
75926;SDS011;64605;48.296;16.416;2023-05-07T03:21:10;16.90;;;14.55;;
75926;SDS011;64605;48.296;16.416;2023-05-07T03:23:36;18.98;;;14.60;;
75926;SDS011;64605;48.296;16.416;2023-05-07T03:26:01;20.83;;;14.82;;
75926;SDS011;64605;48.296;16.416;2023-05-07T03:28:27;17.63;;;14.13;;
75926;SDS011;64605;48.296;16.416;2023-05-07T03:30:52;18.98;;;15.48;;
75926;SDS011;64605;48.296;16.416;2023-05-07T03:33:18;19.30;;;16.05;;
75926;SDS011;64605;48.296;16.416;2023-05-07T03:35:44;18.40;;;14.88;;
75926;SDS011;64605;48.296;16.416;2023-05-07T03:38:10;19.92;;;15.95;;
75926;SDS011;64605;48.296;16.416;2023-05-07T03:40:35;20.83;;;16.77;;
75926;SDS011;64605;48.296;16.416;2023-05-07T03:43:01;18.38;;;16.33;;
75926;SDS011;64605;48.296;16.416;2023-05-07T03:45:27;20.83;;;17.35;;
75926;SDS011;64605;48.296;16.416;2023-05-07T03:47:52;20.98;;;17.50;;
75926;SDS011;64605;48.296;16.416;2023-05-07T03:50:19;21.75;;;17.15;;
75926;SDS011;64605;48.296;16.416;2023-05-07T03:52:44;20.20;;;16.90;;
75926;SDS011;64605;48.296;16.416;2023-05-07T03:55:10;24.13;;;18.80;;
75926;SDS011;64605;48.296;16.416;2023-05-07T03:57:36;24.33;;;19.77;;
75926;SDS011;64605;48.296;16.416;2023-05-07T04:00:02;22.45;;;19.52;;
75926;SDS011;64605;48.296;16.416;2023-05-07T04:02:29;27.80;;;21.98;;
75926;SDS011;64605;48.296;16.416;2023-05-07T04:04:55;28.63;;;23.05;;
75926;SDS011;64605;48.296;16.416;2023-05-07T04:07:21;30.38;;;21.60;;
75926;SDS011;64605;48.296;16.416;2023-05-07T04:09:47;25.88;;;21.10;;
75926;SDS011;64605;48.296;16.416;2023-05-07T04:12:12;29.33;;;22.40;;
75926;SDS011;64605;48.296;16.416;2023-05-07T04:14:38;23.58;;;18.85;;
75926;SDS011;64605;48.296;16.416;2023-05-07T04:17:03;24.02;;;20.83;;
75926;SDS011;64605;48.296;16.416;2023-05-07T04:19:30;27.73;;;23.08;;
75926;SDS011;64605;48.296;16.416;2023-05-07T04:21:58;32.67;;;23.70;;
75926;SDS011;64605;48.296;16.416;2023-05-07T04:24:24;28.83;;;23.00;;
75926;SDS011;64605;48.296;16.416;2023-05-07T04:26:50;29.88;;;24.30;;
75926;SDS011;64605;48.296;16.416;2023-05-07T04:29:16;29.13;;;23.48;;
75926;SDS011;64605;48.296;16.416;2023-05-07T04:31:42;31.75;;;24.65;;
75926;SDS011;64605;48.296;16.416;2023-05-07T04:34:09;34.95;;;28.88;;
75926;SDS011;64605;48.296;16.416;2023-05-07T04:36:36;33.42;;;28.25;;
75926;SDS011;64605;48.296;16.416;2023-05-07T04:39:03;32.35;;;26.17;;
75926;SDS011;64605;48.296;16.416;2023-05-07T04:41:29;31.48;;;27.95;;
75926;SDS011;64605;48.296;16.416;2023-05-07T04:43:55;33.05;;;27.73;;
75926;SDS011;64605;48.296;16.416;2023-05-07T04:46:22;34.05;;;27.85;;
75926;SDS011;64605;48.296;16.416;2023-05-07T04:48:48;35.08;;;27.58;;
75926;SDS011;64605;48.296;16.416;2023-05-07T04:51:14;32.47;;;27.60;;
75926;SDS011;64605;48.296;16.416;2023-05-07T04:53:40;32.53;;;27.25;;
75926;SDS011;64605;48.296;16.416;2023-05-07T04:56:06;34.00;;;29.20;;
75926;SDS011;64605;48.296;16.416;2023-05-07T04:58:32;33.70;;;28.35;;
75926;SDS011;64605;48.296;16.416;2023-05-07T05:00:58;34.45;;;29.17;;
75926;SDS011;64605;48.296;16.416;2023-05-07T05:03:25;33.30;;;28.80;;
75926;SDS011;64605;48.296;16.416;2023-05-07T05:05:51;36.05;;;29.38;;
75926;SDS011;64605;48.296;16.416;2023-05-07T05:08:17;35.20;;;29.73;;
75926;SDS011;64605;48.296;16.416;2023-05-07T05:10:43;31.10;;;27.27;;
75926;SDS011;64605;48.296;16.416;2023-05-07T05:13:09;34.70;;;29.65;;
75926;SDS011;64605;48.296;16.416;2023-05-07T05:15:37;32.63;;;28.52;;
75926;SDS011;64605;48.296;16.416;2023-05-07T05:18:03;35.45;;;30.63;;
75926;SDS011;64605;48.296;16.416;2023-05-07T05:20:29;32.97;;;28.63;;
75926;SDS011;64605;48.296;16.416;2023-05-07T05:22:55;33.53;;;29.38;;
75926;SDS011;64605;48.296;16.416;2023-05-07T05:25:20;31.23;;;27.75;;
75926;SDS011;64605;48.296;16.416;2023-05-07T05:27:46;33.63;;;29.88;;
75926;SDS011;64605;48.296;16.416;2023-05-07T05:30:12;32.83;;;29.10;;
75926;SDS011;64605;48.296;16.416;2023-05-07T05:32:38;31.17;;;27.80;;
75926;SDS011;64605;48.296;16.416;2023-05-07T05:35:03;31.88;;;28.55;;
75926;SDS011;64605;48.296;16.416;2023-05-07T05:37:29;32.88;;;28.20;;
75926;SDS011;64605;48.296;16.416;2023-05-07T05:39:56;32.38;;;28.63;;
75926;SDS011;64605;48.296;16.416;2023-05-07T05:42:23;31.85;;;28.52;;
75926;SDS011;64605;48.296;16.416;2023-05-07T05:44:49;31.80;;;28.23;;
75926;SDS011;64605;48.296;16.416;2023-05-07T05:47:14;28.95;;;25.98;;
75926;SDS011;64605;48.296;16.416;2023-05-07T05:49:40;31.55;;;27.77;;
75926;SDS011;64605;48.296;16.416;2023-05-07T05:52:08;28.27;;;25.23;;
75926;SDS011;64605;48.296;16.416;2023-05-07T05:54:34;29.27;;;26.13;;
75926;SDS011;64605;48.296;16.416;2023-05-07T05:56:59;27.15;;;24.42;;
75926;SDS011;64605;48.296;16.416;2023-05-07T05:59:25;27.65;;;24.75;;
75926;SDS011;64605;48.296;16.416;2023-05-07T06:01:51;29.17;;;26.13;;
75926;SDS011;64605;48.296;16.416;2023-05-07T06:04:16;27.50;;;24.35;;
75926;SDS011;64605;48.296;16.416;2023-05-07T06:06:42;29.17;;;24.90;;
75926;SDS011;64605;48.296;16.416;2023-05-07T06:09:07;26.58;;;23.77;;
75926;SDS011;64605;48.296;16.416;2023-05-07T06:11:33;26.92;;;24.20;;
75926;SDS011;64605;48.296;16.416;2023-05-07T06:13:59;28.35;;;25.45;;
75926;SDS011;64605;48.296;16.416;2023-05-07T06:16:24;26.60;;;23.63;;
75926;SDS011;64605;48.296;16.416;2023-05-07T06:18:50;26.00;;;23.05;;
75926;SDS011;64605;48.296;16.416;2023-05-07T06:21:16;27.17;;;24.35;;
75926;SDS011;64605;48.296;16.416;2023-05-07T06:23:41;27.35;;;24.02;;
75926;SDS011;64605;48.296;16.416;2023-05-07T06:26:07;26.85;;;24.08;;
75926;SDS011;64605;48.296;16.416;2023-05-07T06:28:33;27.55;;;24.77;;
75926;SDS011;64605;48.296;16.416;2023-05-07T06:31:14;24.23;;;21.63;;
75926;SDS011;64605;48.296;16.416;2023-05-07T06:33:41;26.80;;;24.00;;
75926;SDS011;64605;48.296;16.416;2023-05-07T06:36:07;25.45;;;22.83;;
75926;SDS011;64605;48.296;16.416;2023-05-07T06:38:33;26.92;;;24.27;;
75926;SDS011;64605;48.296;16.416;2023-05-07T06:40:59;26.95;;;23.42;;
75926;SDS011;64605;48.296;16.416;2023-05-07T06:43:24;24.98;;;22.42;;
75926;SDS011;64605;48.296;16.416;2023-05-07T06:45:50;24.08;;;21.67;;
75926;SDS011;64605;48.296;16.416;2023-05-07T06:48:16;24.35;;;21.77;;
75926;SDS011;64605;48.296;16.416;2023-05-07T06:50:41;25.75;;;23.15;;
75926;SDS011;64605;48.296;16.416;2023-05-07T06:53:07;26.75;;;22.73;;
75926;SDS011;64605;48.296;16.416;2023-05-07T06:55:33;24.25;;;21.77;;
75926;SDS011;64605;48.296;16.416;2023-05-07T06:57:58;25.10;;;22.60;;
75926;SDS011;64605;48.296;16.416;2023-05-07T07:00:26;24.75;;;22.35;;
75926;SDS011;64605;48.296;16.416;2023-05-07T07:02:52;24.60;;;22.00;;
75926;SDS011;64605;48.296;16.416;2023-05-07T07:05:19;24.83;;;22.23;;
75926;SDS011;64605;48.296;16.416;2023-05-07T07:07:45;24.80;;;22.20;;
75926;SDS011;64605;48.296;16.416;2023-05-07T07:10:17;26.43;;;23.63;;
75926;SDS011;64605;48.296;16.416;2023-05-07T07:12:44;23.77;;;21.08;;
75926;SDS011;64605;48.296;16.416;2023-05-07T07:15:10;22.23;;;19.85;;
75926;SDS011;64605;48.296;16.416;2023-05-07T07:17:36;24.02;;;20.50;;
75926;SDS011;64605;48.296;16.416;2023-05-07T07:20:01;22.70;;;20.40;;
75926;SDS011;64605;48.296;16.416;2023-05-07T07:22:27;22.35;;;19.75;;
75926;SDS011;64605;48.296;16.416;2023-05-07T07:24:53;24.70;;;22.10;;
75926;SDS011;64605;48.296;16.416;2023-05-07T07:27:19;24.73;;;22.00;;
75926;SDS011;64605;48.296;16.416;2023-05-07T07:29:45;25.10;;;22.38;;
75926;SDS011;64605;48.296;16.416;2023-05-07T07:32:11;24.35;;;21.70;;
75926;SDS011;64605;48.296;16.416;2023-05-07T07:34:36;23.35;;;20.95;;
75926;SDS011;64605;48.296;16.416;2023-05-07T07:37:02;22.40;;;20.20;;
75926;SDS011;64605;48.296;16.416;2023-05-07T07:39:31;21.35;;;17.95;;
75926;SDS011;64605;48.296;16.416;2023-05-07T07:41:57;18.63;;;16.83;;
75926;SDS011;64605;48.296;16.416;2023-05-07T07:44:23;18.80;;;16.80;;
75926;SDS011;64605;48.296;16.416;2023-05-07T07:46:48;19.27;;;15.63;;
75926;SDS011;64605;48.296;16.416;2023-05-07T07:49:15;17.55;;;15.93;;
75926;SDS011;64605;48.296;16.416;2023-05-07T07:51:41;16.65;;;15.05;;
75926;SDS011;64605;48.296;16.416;2023-05-07T07:54:06;16.58;;;15.05;;
75926;SDS011;64605;48.296;16.416;2023-05-07T07:56:32;17.25;;;15.65;;
75926;SDS011;64605;48.296;16.416;2023-05-07T07:58:59;17.33;;;15.82;;
75926;SDS011;64605;48.296;16.416;2023-05-07T08:01:25;16.60;;;15.00;;
75926;SDS011;64605;48.296;16.416;2023-05-07T08:03:51;15.90;;;14.55;;
75926;SDS011;64605;48.296;16.416;2023-05-07T08:06:16;15.27;;;13.98;;
75926;SDS011;64605;48.296;16.416;2023-05-07T08:08:42;16.00;;;14.35;;
75926;SDS011;64605;48.296;16.416;2023-05-07T08:11:08;15.57;;;14.27;;
75926;SDS011;64605;48.296;16.416;2023-05-07T08:13:34;15.45;;;13.98;;
75926;SDS011;64605;48.296;16.416;2023-05-07T08:16:00;16.92;;;15.32;;
75926;SDS011;64605;48.296;16.416;2023-05-07T08:18:25;15.68;;;14.25;;
75926;SDS011;64605;48.296;16.416;2023-05-07T08:20:53;16.25;;;14.75;;
75926;SDS011;64605;48.296;16.416;2023-05-07T08:23:19;17.23;;;15.60;;
75926;SDS011;64605;48.296;16.416;2023-05-07T08:25:44;15.32;;;13.90;;
75926;SDS011;64605;48.296;16.416;2023-05-07T08:28:10;16.17;;;14.65;;
75926;SDS011;64605;48.296;16.416;2023-05-07T08:30:36;16.70;;;15.00;;
75926;SDS011;64605;48.296;16.416;2023-05-07T08:33:02;16.45;;;14.95;;
75926;SDS011;64605;48.296;16.416;2023-05-07T08:35:27;18.23;;;15.13;;
75926;SDS011;64605;48.296;16.416;2023-05-07T08:37:53;14.93;;;13.50;;
75926;SDS011;64605;48.296;16.416;2023-05-07T08:40:19;16.77;;;15.02;;
75926;SDS011;64605;48.296;16.416;2023-05-07T08:42:49;17.95;;;15.55;;
75926;SDS011;64605;48.296;16.416;2023-05-07T08:45:17;16.50;;;14.85;;
75926;SDS011;64605;48.296;16.416;2023-05-07T08:47:46;17.42;;;15.70;;
75926;SDS011;64605;48.296;16.416;2023-05-07T08:50:15;16.75;;;15.18;;
75926;SDS011;64605;48.296;16.416;2023-05-07T08:52:41;16.77;;;15.13;;
75926;SDS011;64605;48.296;16.416;2023-05-07T08:55:08;16.17;;;14.50;;
75926;SDS011;64605;48.296;16.416;2023-05-07T08:57:34;16.38;;;14.65;;
75926;SDS011;64605;48.296;16.416;2023-05-07T09:00:01;16.73;;;14.93;;
75926;SDS011;64605;48.296;16.416;2023-05-07T09:02:28;16.77;;;14.98;;
75926;SDS011;64605;48.296;16.416;2023-05-07T09:04:54;15.15;;;13.68;;
75926;SDS011;64605;48.296;16.416;2023-05-07T09:07:20;17.00;;;13.90;;
75926;SDS011;64605;48.296;16.416;2023-05-07T09:09:46;15.15;;;13.65;;
75926;SDS011;64605;48.296;16.416;2023-05-07T09:12:12;14.38;;;12.77;;
75926;SDS011;64605;48.296;16.416;2023-05-07T09:14:38;13.75;;;12.45;;
75926;SDS011;64605;48.296;16.416;2023-05-07T09:17:04;14.48;;;13.07;;
75926;SDS011;64605;48.296;16.416;2023-05-07T09:19:30;15.15;;;13.70;;
75926;SDS011;64605;48.296;16.416;2023-05-07T09:21:59;15.00;;;13.45;;
75926;SDS011;64605;48.296;16.416;2023-05-07T09:24:26;15.93;;;14.35;;
75926;SDS011;64605;48.296;16.416;2023-05-07T09:26:53;15.38;;;13.75;;
75926;SDS011;64605;48.296;16.416;2023-05-07T09:29:20;17.15;;;15.50;;
75926;SDS011;64605;48.296;16.416;2023-05-07T09:31:46;14.95;;;13.52;;
75926;SDS011;64605;48.296;16.416;2023-05-07T09:34:12;14.80;;;13.40;;
75926;SDS011;64605;48.296;16.416;2023-05-07T09:36:37;14.07;;;12.68;;
75926;SDS011;64605;48.296;16.416;2023-05-07T09:39:03;13.65;;;12.35;;
75926;SDS011;64605;48.296;16.416;2023-05-07T09:41:30;13.80;;;12.50;;
75926;SDS011;64605;48.296;16.416;2023-05-07T09:43:57;13.98;;;12.48;;
75926;SDS011;64605;48.296;16.416;2023-05-07T09:46:32;19.90;;;12.55;;
75926;SDS011;64605;48.296;16.416;2023-05-07T09:49:01;15.30;;;13.02;;
75926;SDS011;64605;48.296;16.416;2023-05-07T09:51:33;15.05;;;13.45;;
75926;SDS011;64605;48.296;16.416;2023-05-07T09:54:08;12.48;;;11.38;;
75926;SDS011;64605;48.296;16.416;2023-05-07T09:56:35;14.07;;;12.70;;
75926;SDS011;64605;48.296;16.416;2023-05-07T09:59:02;14.00;;;12.45;;
75926;SDS011;64605;48.296;16.416;2023-05-07T10:01:29;14.27;;;12.77;;
75926;SDS011;64605;48.296;16.416;2023-05-07T10:03:57;13.25;;;11.95;;
75926;SDS011;64605;48.296;16.416;2023-05-07T10:06:24;14.77;;;13.48;;
75926;SDS011;64605;48.296;16.416;2023-05-07T10:08:51;14.43;;;12.93;;
75926;SDS011;64605;48.296;16.416;2023-05-07T10:11:18;14.60;;;13.20;;
75926;SDS011;64605;48.296;16.416;2023-05-07T10:13:44;13.90;;;12.50;;
75926;SDS011;64605;48.296;16.416;2023-05-07T10:16:12;15.60;;;12.85;;
75926;SDS011;64605;48.296;16.416;2023-05-07T10:18:40;13.98;;;12.68;;
75926;SDS011;64605;48.296;16.416;2023-05-07T10:21:22;13.38;;;12.07;;
75926;SDS011;64605;48.296;16.416;2023-05-07T10:23:49;12.93;;;11.73;;
75926;SDS011;64605;48.296;16.416;2023-05-07T10:26:28;13.70;;;12.23;;
75926;SDS011;64605;48.296;16.416;2023-05-07T10:28:58;13.68;;;12.45;;
75926;SDS011;64605;48.296;16.416;2023-05-07T10:34:00;12.90;;;11.63;;
75926;SDS011;64605;48.296;16.416;2023-05-07T10:36:27;12.60;;;11.32;;
75926;SDS011;64605;48.296;16.416;2023-05-07T10:38:54;12.25;;;11.15;;
75926;SDS011;64605;48.296;16.416;2023-05-07T10:41:20;11.82;;;10.63;;
75926;SDS011;64605;48.296;16.416;2023-05-07T10:43:46;11.45;;;10.15;;
75926;SDS011;64605;48.296;16.416;2023-05-07T10:46:14;12.40;;;11.10;;
75926;SDS011;64605;48.296;16.416;2023-05-07T10:49:06;11.93;;;10.73;;
75926;SDS011;64605;48.296;16.416;2023-05-07T10:51:31;10.93;;;9.88;;
75926;SDS011;64605;48.296;16.416;2023-05-07T10:54:31;11.10;;;10.10;;
75926;SDS011;64605;48.296;16.416;2023-05-07T10:56:50;11.77;;;10.68;;
75926;SDS011;64605;48.296;16.416;2023-05-07T11:01:49;11.30;;;10.30;;
75926;SDS011;64605;48.296;16.416;2023-05-07T11:04:19;11.25;;;10.25;;
75926;SDS011;64605;48.296;16.416;2023-05-07T11:07:10;10.40;;;9.43;;
75926;SDS011;64605;48.296;16.416;2023-05-07T11:10:04;10.90;;;9.90;;
75926;SDS011;64605;48.296;16.416;2023-05-07T11:15:06;11.52;;;10.43;;
75926;SDS011;64605;48.296;16.416;2023-05-07T11:17:33;10.85;;;9.43;;
75926;SDS011;64605;48.296;16.416;2023-05-07T11:20:00;10.98;;;9.88;;
75926;SDS011;64605;48.296;16.416;2023-05-07T11:25:00;9.90;;;9.02;;
75926;SDS011;64605;48.296;16.416;2023-05-07T11:27:26;10.65;;;9.52;;
75926;SDS011;64605;48.296;16.416;2023-05-07T11:29:52;10.25;;;9.13;;
75926;SDS011;64605;48.296;16.416;2023-05-07T11:34:52;10.65;;;9.65;;
75926;SDS011;64605;48.296;16.416;2023-05-07T11:37:19;9.95;;;8.95;;
75926;SDS011;64605;48.296;16.416;2023-05-07T11:39:45;10.57;;;9.10;;
75926;SDS011;64605;48.296;16.416;2023-05-07T11:42:24;9.57;;;8.68;;
75926;SDS011;64605;48.296;16.416;2023-05-07T11:44:52;9.43;;;8.40;;
75926;SDS011;64605;48.296;16.416;2023-05-07T11:47:18;9.45;;;8.55;;
75926;SDS011;64605;48.296;16.416;2023-05-07T11:49:46;9.77;;;8.77;;
75926;SDS011;64605;48.296;16.416;2023-05-07T11:52:16;11.05;;;8.55;;
75926;SDS011;64605;48.296;16.416;2023-05-07T11:54:56;10.32;;;9.40;;
75926;SDS011;64605;48.296;16.416;2023-05-07T11:57:23;11.02;;;9.32;;
75926;SDS011;64605;48.296;16.416;2023-05-07T11:59:53;10.15;;;9.07;;
75926;SDS011;64605;48.296;16.416;2023-05-07T12:02:19;11.00;;;9.90;;
75926;SDS011;64605;48.296;16.416;2023-05-07T12:04:45;10.52;;;9.40;;
75926;SDS011;64605;48.296;16.416;2023-05-07T12:07:11;9.23;;;8.27;;
75926;SDS011;64605;48.296;16.416;2023-05-07T12:09:41;11.07;;;8.35;;
75926;SDS011;64605;48.296;16.416;2023-05-07T12:12:07;9.73;;;8.30;;
75926;SDS011;64605;48.296;16.416;2023-05-07T12:14:32;8.40;;;7.60;;
75926;SDS011;64605;48.296;16.416;2023-05-07T12:17:02;8.43;;;7.60;;
75926;SDS011;64605;48.296;16.416;2023-05-07T12:19:29;9.23;;;8.32;;
75926;SDS011;64605;48.296;16.416;2023-05-07T12:21:55;9.10;;;7.70;;
75926;SDS011;64605;48.296;16.416;2023-05-07T12:24:22;8.40;;;7.47;;
75926;SDS011;64605;48.296;16.416;2023-05-07T12:26:48;8.25;;;7.43;;
75926;SDS011;64605;48.296;16.416;2023-05-07T12:29:14;7.68;;;6.88;;
75926;SDS011;64605;48.296;16.416;2023-05-07T12:31:40;7.32;;;6.60;;
75926;SDS011;64605;48.296;16.416;2023-05-07T12:34:07;9.45;;;7.18;;
75926;SDS011;64605;48.296;16.416;2023-05-07T12:36:39;8.30;;;7.50;;
75926;SDS011;64605;48.296;16.416;2023-05-07T12:41:35;6.95;;;6.35;;
75926;SDS011;64605;48.296;16.416;2023-05-07T12:44:16;6.85;;;6.15;;
75926;SDS011;64605;48.296;16.416;2023-05-07T12:46:42;7.65;;;6.95;;
75926;SDS011;64605;48.296;16.416;2023-05-07T12:49:07;9.60;;;6.93;;
75926;SDS011;64605;48.296;16.416;2023-05-07T12:51:34;7.53;;;6.78;;
75926;SDS011;64605;48.296;16.416;2023-05-07T12:54:00;6.88;;;5.97;;
75926;SDS011;64605;48.296;16.416;2023-05-07T12:56:26;6.75;;;5.82;;
75926;SDS011;64605;48.296;16.416;2023-05-07T12:58:51;7.10;;;6.40;;
75926;SDS011;64605;48.296;16.416;2023-05-07T13:01:28;7.72;;;6.95;;
75926;SDS011;64605;48.296;16.416;2023-05-07T13:03:55;7.88;;;7.18;;
75926;SDS011;64605;48.296;16.416;2023-05-07T13:06:21;6.78;;;6.18;;
75926;SDS011;64605;48.296;16.416;2023-05-07T13:08:46;7.43;;;6.72;;
75926;SDS011;64605;48.296;16.416;2023-05-07T13:11:12;7.32;;;6.50;;
75926;SDS011;64605;48.296;16.416;2023-05-07T13:13:38;8.10;;;6.72;;
75926;SDS011;64605;48.296;16.416;2023-05-07T13:16:06;8.82;;;6.15;;
75926;SDS011;64605;48.296;16.416;2023-05-07T13:18:33;6.97;;;6.25;;
75926;SDS011;64605;48.296;16.416;2023-05-07T13:20:59;7.25;;;6.55;;
75926;SDS011;64605;48.296;16.416;2023-05-07T13:23:26;7.85;;;7.05;;
75926;SDS011;64605;48.296;16.416;2023-05-07T13:25:52;8.60;;;6.72;;
75926;SDS011;64605;48.296;16.416;2023-05-07T13:28:19;8.50;;;6.85;;
75926;SDS011;64605;48.296;16.416;2023-05-07T13:30:45;7.57;;;6.85;;
75926;SDS011;64605;48.296;16.416;2023-05-07T13:33:11;7.28;;;6.57;;
75926;SDS011;64605;48.296;16.416;2023-05-07T13:35:37;6.18;;;5.57;;
75926;SDS011;64605;48.296;16.416;2023-05-07T13:38:03;7.70;;;6.65;;
75926;SDS011;64605;48.296;16.416;2023-05-07T13:40:29;6.90;;;6.20;;
75926;SDS011;64605;48.296;16.416;2023-05-07T13:42:56;6.47;;;5.70;;
75926;SDS011;64605;48.296;16.416;2023-05-07T13:45:23;5.60;;;5.10;;
75926;SDS011;64605;48.296;16.416;2023-05-07T13:47:50;6.68;;;5.40;;
75926;SDS011;64605;48.296;16.416;2023-05-07T13:50:17;6.60;;;5.45;;
75926;SDS011;64605;48.296;16.416;2023-05-07T13:52:43;6.88;;;6.00;;
75926;SDS011;64605;48.296;16.416;2023-05-07T13:55:15;7.57;;;5.70;;
75926;SDS011;64605;48.296;16.416;2023-05-07T13:57:45;5.25;;;4.75;;
75926;SDS011;64605;48.296;16.416;2023-05-07T14:00:11;5.78;;;5.25;;
75926;SDS011;64605;48.296;16.416;2023-05-07T14:02:38;6.85;;;6.03;;
75926;SDS011;64605;48.296;16.416;2023-05-07T14:05:03;5.82;;;5.30;;
75926;SDS011;64605;48.296;16.416;2023-05-07T14:07:29;5.20;;;4.65;;
75926;SDS011;64605;48.296;16.416;2023-05-07T14:09:56;5.43;;;4.90;;
75926;SDS011;64605;48.296;16.416;2023-05-07T14:12:22;5.22;;;4.45;;
75926;SDS011;64605;48.296;16.416;2023-05-07T14:14:48;5.53;;;4.68;;
75926;SDS011;64605;48.296;16.416;2023-05-07T14:17:15;4.95;;;4.45;;
75926;SDS011;64605;48.296;16.416;2023-05-07T14:19:45;4.35;;;3.95;;
75926;SDS011;64605;48.296;16.416;2023-05-07T14:22:10;6.60;;;4.72;;
75926;SDS011;64605;48.296;16.416;2023-05-07T14:24:36;5.45;;;4.95;;
75926;SDS011;64605;48.296;16.416;2023-05-07T14:27:01;6.10;;;4.47;;
75926;SDS011;64605;48.296;16.416;2023-05-07T14:29:27;5.53;;;3.90;;
75926;SDS011;64605;48.296;16.416;2023-05-07T14:31:53;4.82;;;4.43;;